DLH24C EKCH-EDDH
Flight info
| Callsign | DLH24C |
|---|---|
| Flight time | 0h 29m |
| Altitude | 24000 |
| Route | NEXEN T503 MICOS N850 BOGMU BOGMU3P |
| Aircraft | A321/M-SDE3FGHIRWY/LB1 |
Departure
| Time | 2026-04-24 18:55 |
|---|---|
| Airport | Copenhagen Kastrup Airport (EKCH) |
Arrival
| Time | 2026-04-24 19:25 |
|---|---|
| Airport | Hamburg Helmut Schmidt Airport (EDDH) |
| Time | Latitude | Longitude | Altitude | Speed | Heading |
|---|---|---|---|---|---|
| 2026-04-24 18:54 | 55.64629 | 12.79969 | 3544 ft | 280 kts | 143° |
| 2026-04-24 18:55 | 55.60948 | 12.81652 | 5169 ft | 281 kts | 184° |
| 2026-04-24 18:55 | 55.58976 | 12.81576 | 5935 ft | 287 kts | 185° |
| 2026-04-24 18:55 | 55.56959 | 12.81458 | 6660 ft | 293 kts | 186° |
| 2026-04-24 18:56 | 55.54960 | 12.80842 | 7360 ft | 292 kts | 206° |
| 2026-04-24 18:56 | 55.53788 | 12.79722 | 7838 ft | 288 kts | 222° |
| 2026-04-24 18:56 | 55.52259 | 12.77462 | 8621 ft | 288 kts | 226° |
| 2026-04-24 18:56 | 55.50212 | 12.74343 | 9671 ft | 293 kts | 227° |
| 2026-04-24 18:57 | 55.48654 | 12.71969 | 10276 ft | 303 kts | 227° |
| 2026-04-24 18:57 | 55.47025 | 12.69478 | 10476 ft | 326 kts | 227° |
| 2026-04-24 18:57 | 55.45258 | 12.66784 | 10691 ft | 345 kts | 226° |
| 2026-04-24 18:57 | 55.43415 | 12.64002 | 11252 ft | 352 kts | 226° |
| 2026-04-24 18:58 | 55.41540 | 12.61193 | 11914 ft | 355 kts | 226° |
| 2026-04-24 18:58 | 55.39645 | 12.58368 | 12591 ft | 359 kts | 226° |
| 2026-04-24 18:58 | 55.38371 | 12.56471 | 13042 ft | 361 kts | 227° |
| 2026-04-24 18:58 | 55.36432 | 12.53578 | 13727 ft | 364 kts | 227° |
| 2026-04-24 18:59 | 55.34494 | 12.50679 | 14332 ft | 367 kts | 227° |
| 2026-04-24 18:59 | 55.32546 | 12.47763 | 14940 ft | 370 kts | 227° |
| 2026-04-24 18:59 | 55.30577 | 12.44823 | 15549 ft | 372 kts | 227° |
| 2026-04-24 18:59 | 55.28595 | 12.41872 | 16146 ft | 375 kts | 227° |
| 2026-04-24 19:00 | 55.26596 | 12.38901 | 16733 ft | 378 kts | 226° |
| 2026-04-24 19:00 | 55.24585 | 12.35916 | 17328 ft | 381 kts | 226° |
| 2026-04-24 19:00 | 55.22559 | 12.32907 | 17911 ft | 383 kts | 226° |
| 2026-04-24 19:00 | 55.20516 | 12.29874 | 18467 ft | 386 kts | 226° |
| 2026-04-24 19:01 | 55.18472 | 12.26847 | 18955 ft | 389 kts | 226° |
| 2026-04-24 19:01 | 55.16388 | 12.23768 | 19413 ft | 392 kts | 226° |
| 2026-04-24 19:01 | 55.14299 | 12.20689 | 19897 ft | 394 kts | 226° |
| 2026-04-24 19:01 | 55.12198 | 12.17596 | 20374 ft | 397 kts | 226° |
| 2026-04-24 19:02 | 55.10052 | 12.14438 | 20846 ft | 400 kts | 226° |
| 2026-04-24 19:02 | 55.07918 | 12.11304 | 21284 ft | 402 kts | 226° |
| 2026-04-24 19:02 | 55.05768 | 12.08151 | 21755 ft | 405 kts | 226° |
| 2026-04-24 19:02 | 55.03611 | 12.04983 | 22191 ft | 408 kts | 226° |
| 2026-04-24 19:03 | 55.01428 | 12.01776 | 22639 ft | 411 kts | 226° |
| 2026-04-24 19:03 | 54.99234 | 11.98560 | 22951 ft | 413 kts | 225° |
| 2026-04-24 19:03 | 54.97058 | 11.95383 | 23016 ft | 413 kts | 225° |
| 2026-04-24 19:03 | 54.94826 | 11.92136 | 23019 ft | 413 kts | 225° |
| 2026-04-24 19:04 | 54.92619 | 11.88930 | 23011 ft | 413 kts | 225° |
| 2026-04-24 19:04 | 54.90411 | 11.85728 | 23019 ft | 413 kts | 225° |
| 2026-04-24 19:04 | 54.88202 | 11.82533 | 23021 ft | 413 kts | 225° |
| 2026-04-24 19:04 | 54.86004 | 11.79359 | 23030 ft | 413 kts | 225° |
| 2026-04-24 19:05 | 54.83783 | 11.76152 | 23030 ft | 413 kts | 225° |
| 2026-04-24 19:05 | 54.81575 | 11.72966 | 23030 ft | 413 kts | 225° |
| 2026-04-24 19:05 | 54.79364 | 11.69777 | 23032 ft | 413 kts | 225° |
| 2026-04-24 19:05 | 54.77155 | 11.66593 | 23032 ft | 413 kts | 225° |
| 2026-04-24 19:06 | 54.74916 | 11.63367 | 23032 ft | 413 kts | 225° |
| 2026-04-24 19:06 | 54.72705 | 11.60189 | 23032 ft | 413 kts | 225° |
| 2026-04-24 19:06 | 54.70494 | 11.57014 | 23024 ft | 413 kts | 224° |
| 2026-04-24 19:06 | 54.68283 | 11.53847 | 23041 ft | 413 kts | 224° |
| 2026-04-24 19:07 | 54.66068 | 11.50681 | 23038 ft | 413 kts | 224° |
| 2026-04-24 19:07 | 54.63853 | 11.47518 | 23046 ft | 413 kts | 224° |
| 2026-04-24 19:07 | 54.62388 | 11.45426 | 23046 ft | 413 kts | 224° |
| 2026-04-24 19:07 | 54.59419 | 11.41201 | 23054 ft | 413 kts | 224° |
| 2026-04-24 19:08 | 54.57200 | 11.38051 | 23053 ft | 412 kts | 224° |
| 2026-04-24 19:08 | 54.55016 | 11.34957 | 22752 ft | 402 kts | 224° |
| 2026-04-24 19:08 | 54.52875 | 11.31928 | 22216 ft | 396 kts | 224° |
| 2026-04-24 19:08 | 54.50762 | 11.28936 | 21672 ft | 391 kts | 224° |
| 2026-04-24 19:09 | 54.48668 | 11.25979 | 21100 ft | 387 kts | 224° |
| 2026-04-24 19:09 | 54.46578 | 11.23098 | 20570 ft | 382 kts | 223° |
| 2026-04-24 19:09 | 54.44501 | 11.20288 | 20045 ft | 378 kts | 223° |
| 2026-04-24 19:09 | 54.42408 | 11.17481 | 19503 ft | 375 kts | 223° |
| 2026-04-24 19:10 | 54.40358 | 11.14736 | 18979 ft | 372 kts | 223° |
| 2026-04-24 19:10 | 54.38329 | 11.12012 | 18422 ft | 369 kts | 223° |
| 2026-04-24 19:10 | 54.36317 | 11.09301 | 17791 ft | 366 kts | 223° |
| 2026-04-24 19:10 | 54.34325 | 11.06609 | 17178 ft | 364 kts | 223° |
| 2026-04-24 19:11 | 54.32344 | 11.03934 | 16583 ft | 361 kts | 224° |
| 2026-04-24 19:11 | 54.30376 | 11.01283 | 15990 ft | 359 kts | 224° |
| 2026-04-24 19:11 | 54.28422 | 10.98657 | 15421 ft | 356 kts | 224° |
| 2026-04-24 19:11 | 54.26476 | 10.96042 | 14849 ft | 354 kts | 224° |
| 2026-04-24 19:12 | 54.24544 | 10.93448 | 14268 ft | 352 kts | 223° |
| 2026-04-24 19:12 | 54.22626 | 10.90880 | 13706 ft | 350 kts | 223° |
| 2026-04-24 19:12 | 54.20717 | 10.88325 | 13096 ft | 347 kts | 224° |
| 2026-04-24 19:12 | 54.18819 | 10.85787 | 12492 ft | 345 kts | 224° |
| 2026-04-24 19:13 | 54.17570 | 10.84117 | 12107 ft | 344 kts | 224° |
| 2026-04-24 19:13 | 54.15057 | 10.80761 | 11331 ft | 341 kts | 224° |
| 2026-04-24 19:13 | 54.13192 | 10.78276 | 10757 ft | 340 kts | 224° |
| 2026-04-24 19:13 | 54.11605 | 10.76168 | 10309 ft | 338 kts | 224° |
| 2026-04-24 19:14 | 54.09671 | 10.73604 | 10116 ft | 330 kts | 224° |
| 2026-04-24 19:14 | 54.07907 | 10.71280 | 10104 ft | 311 kts | 224° |
| 2026-04-24 19:14 | 54.06242 | 10.69097 | 10108 ft | 293 kts | 224° |
| 2026-04-24 19:14 | 54.04582 | 10.66904 | 10111 ft | 288 kts | 224° |
| 2026-04-24 19:15 | 54.03049 | 10.64867 | 10113 ft | 288 kts | 225° |
| 2026-04-24 19:15 | 54.01473 | 10.62771 | 10108 ft | 288 kts | 224° |
| 2026-04-24 19:15 | 53.99914 | 10.60699 | 10112 ft | 288 kts | 224° |
| 2026-04-24 19:15 | 53.98332 | 10.58599 | 10103 ft | 288 kts | 224° |
| 2026-04-24 19:16 | 53.95204 | 10.54430 | 9383 ft | 284 kts | 224° |
| 2026-04-24 19:16 | 53.93663 | 10.52355 | 9022 ft | 281 kts | 224° |
| 2026-04-24 19:16 | 53.92136 | 10.50297 | 8639 ft | 280 kts | 224° |
| 2026-04-24 19:17 | 53.90638 | 10.48275 | 8485 ft | 269 kts | 224° |
| 2026-04-24 19:17 | 53.89205 | 10.46356 | 8281 ft | 258 kts | 224° |
| 2026-04-24 19:17 | 53.87806 | 10.44487 | 7917 ft | 255 kts | 224° |
| 2026-04-24 19:17 | 53.86438 | 10.42657 | 7532 ft | 253 kts | 224° |
| 2026-04-24 19:18 | 53.85063 | 10.40808 | 7134 ft | 251 kts | 224° |
| 2026-04-24 19:18 | 53.83698 | 10.38965 | 6689 ft | 251 kts | 224° |
| 2026-04-24 19:18 | 53.82335 | 10.37114 | 6120 ft | 252 kts | 224° |
| 2026-04-24 19:18 | 53.80958 | 10.35188 | 5484 ft | 250 kts | 230° |
| 2026-04-24 19:19 | 53.79804 | 10.33072 | 5089 ft | 243 kts | 236° |
| 2026-04-24 19:19 | 53.78736 | 10.30870 | 4759 ft | 241 kts | 237° |
| 2026-04-24 19:19 | 53.77678 | 10.28679 | 4446 ft | 240 kts | 237° |
| 2026-04-24 19:19 | 53.76630 | 10.26531 | 4122 ft | 233 kts | 237° |
| 2026-04-24 19:20 | 53.75954 | 10.25149 | 3927 ft | 227 kts | 237° |
| 2026-04-24 19:20 | 53.74654 | 10.22491 | 3542 ft | 213 kts | 238° |
| 2026-04-24 19:20 | 53.73728 | 10.20597 | 3256 ft | 205 kts | 238° |
| 2026-04-24 19:20 | 53.72838 | 10.18778 | 2996 ft | 197 kts | 238° |
| 2026-04-24 19:21 | 53.71986 | 10.17038 | 2732 ft | 188 kts | 239° |
| 2026-04-24 19:21 | 53.71165 | 10.15362 | 2480 ft | 182 kts | 238° |
| 2026-04-24 19:21 | 53.70329 | 10.13654 | 2223 ft | 177 kts | 238° |
| 2026-04-24 19:21 | 53.69832 | 10.12640 | 2079 ft | 174 kts | 238° |
| 2026-04-24 19:22 | 53.69058 | 10.11064 | 1834 ft | 169 kts | 238° |
| 2026-04-24 19:22 | 53.68110 | 10.09141 | 1528 ft | 150 kts | 239° |
| 2026-04-24 19:22 | 53.67467 | 10.07820 | 1329 ft | 143 kts | 238° |
| 2026-04-24 19:22 | 53.66841 | 10.06552 | 1134 ft | 140 kts | 237° |
| 2026-04-24 19:23 | 53.66233 | 10.05299 | 917 ft | 137 kts | 237° |
| 2026-04-24 19:23 | 53.65816 | 10.04446 | 790 ft | 137 kts | 235° |
| 2026-04-24 19:23 | 53.65012 | 10.02827 | 539 ft | 133 kts | 235° |
| 2026-04-24 19:23 | 53.64609 | 10.02025 | 414 ft | 132 kts | 236° |
| 2026-04-24 19:24 | 53.63995 | 10.00782 | 231 ft | 135 kts | 237° |
| 2026-04-24 19:24 | 53.63385 | 9.99533 | 53 ft | 129 kts | 234° |
| 2026-04-24 19:24 | 53.62893 | 9.98514 | 46 ft | 102 kts | 230° |
| 2026-04-24 19:24 | 53.62515 | 9.97759 | 41 ft | 57 kts | 231° |
| 2026-04-24 19:25 | 53.62364 | 9.97456 | 40 ft | 22 kts | 230° |
| 2026-04-24 19:25 | 53.62252 | 9.97364 | 40 ft | 18 kts | 171° |
| 2026-04-24 19:25 | 53.62178 | 9.97492 | 47 ft | 15 kts | 103° |
| 2026-04-24 19:25 | 53.62212 | 9.97651 | 47 ft | 16 kts | 49° |
| 2026-04-24 19:26 | 53.62287 | 9.97802 | 47 ft | 18 kts | 51° |
| 2026-04-24 19:26 | 53.62369 | 9.97970 | 47 ft | 19 kts | 49° |
| 2026-04-24 19:26 | 53.62471 | 9.98143 | 47 ft | 22 kts | 40° |
| 2026-04-24 19:26 | 53.62586 | 9.98342 | 47 ft | 24 kts | 50° |
| 2026-04-24 19:27 | 53.62690 | 9.98552 | 47 ft | 25 kts | 50° |
| 2026-04-24 19:27 | 53.62803 | 9.98783 | 47 ft | 26 kts | 50° |
| 2026-04-24 19:27 | 53.62914 | 9.99007 | 47 ft | 23 kts | 50° |
| 2026-04-24 19:27 | 53.63008 | 9.99198 | 47 ft | 14 kts | 51° |
| 2026-04-24 19:28 | 53.63070 | 9.99332 | 47 ft | 11 kts | 54° |
| 2026-04-24 19:28 | 53.63083 | 9.99365 | 47 ft | 0 kts | 56° |
| 2026-04-24 19:28 | 53.63093 | 9.99389 | 47 ft | 8 kts | 56° |
| 2026-04-24 19:29 | 53.63217 | 9.99661 | 48 ft | 11 kts | 47° |
| 2026-04-24 19:29 | 53.63283 | 9.99774 | 49 ft | 19 kts | 46° |
| 2026-04-24 19:29 | 53.63359 | 9.99925 | 49 ft | 17 kts | 50° |
| 2026-04-24 19:30 | 53.63420 | 10.00047 | 49 ft | 7 kts | 51° |
| 2026-04-24 19:30 | 53.63425 | 10.00127 | 49 ft | 8 kts | 110° |
| 2026-04-24 19:30 | 53.63388 | 10.00213 | 47 ft | 10 kts | 139° |
| 2026-04-24 19:30 | 53.63331 | 10.00237 | 49 ft | 6 kts | 155° |
| 2026-04-24 19:31 | 53.63328 | 10.00290 | 49 ft | 6 kts | 82° |
| 2026-04-24 19:31 | 53.63330 | 10.00341 | 49 ft | 4 kts | 86° |
| 2026-04-24 19:31 | 53.63331 | 10.00347 | 49 ft | 0 kts | 86° |